createdAt,value
2023-03-18T00:00:19.150Z,3.88
2023-03-18T00:02:48.002Z,3.53
2023-03-18T00:05:15.982Z,3.92
2023-03-18T00:07:43.173Z,3.95
2023-03-18T00:10:12.110Z,4.20
2023-03-18T00:12:40.561Z,4.78
2023-03-18T00:15:10.003Z,4.20
2023-03-18T00:17:38.002Z,3.70
2023-03-18T00:20:07.072Z,4.63
2023-03-18T00:22:35.975Z,3.97
2023-03-18T00:25:05.353Z,3.90
2023-03-18T00:27:33.727Z,3.00
2023-03-18T00:30:02.073Z,3.08
2023-03-18T00:32:29.467Z,3.63
2023-03-18T00:34:57.033Z,3.47
2023-03-18T00:37:31.895Z,2.80
2023-03-18T00:40:06.242Z,2.88
2023-03-18T00:42:39.194Z,3.10
2023-03-18T00:45:08.932Z,3.72
2023-03-18T00:47:38.585Z,3.47
2023-03-18T00:50:08.569Z,3.53
2023-03-18T00:52:36.442Z,3.55
2023-03-18T00:55:04.230Z,3.75
2023-03-18T00:57:31.806Z,4.55
2023-03-18T00:59:59.501Z,3.40
2023-03-18T01:02:29.835Z,5.45
2023-03-18T01:04:58.064Z,3.95
2023-03-18T01:07:25.693Z,3.00
2023-03-18T01:09:52.984Z,3.75
2023-03-18T01:12:20.640Z,3.38
2023-03-18T01:14:48.221Z,3.58
2023-03-18T01:17:15.629Z,3.20
2023-03-18T01:19:43.552Z,2.83
2023-03-18T01:22:11.076Z,2.80
2023-03-18T01:24:45.137Z,3.00
2023-03-18T01:27:13.937Z,2.50
2023-03-18T01:29:43.148Z,2.67
2023-03-18T01:32:16.434Z,2.10
2023-03-18T01:34:44.309Z,3.35
2023-03-18T01:37:11.776Z,2.80
2023-03-18T01:39:41.569Z,3.30
2023-03-18T01:42:18.209Z,2.88
2023-03-18T01:44:46.377Z,2.65
2023-03-18T01:47:17.464Z,4.05
2023-03-18T01:49:52.434Z,2.83
2023-03-18T01:52:25.265Z,2.95
2023-03-18T01:55:06.274Z,2.80
2023-03-18T01:57:35.024Z,3.15
2023-03-18T02:00:04.690Z,3.05
2023-03-18T02:02:43.332Z,3.00
2023-03-18T02:05:13.914Z,2.72
2023-03-18T02:07:42.912Z,3.20
2023-03-18T02:10:19.291Z,2.90
2023-03-18T02:12:51.047Z,2.50
2023-03-18T02:15:27.566Z,2.85
2023-03-18T02:18:08.953Z,3.13
2023-03-18T02:20:52.786Z,2.80
2023-03-18T02:23:57.093Z,3.63
2023-03-18T02:26:48.284Z,3.47
2023-03-18T02:29:19.473Z,3.63
2023-03-18T02:31:56.315Z,3.70
2023-03-18T02:34:28.463Z,4.10
2023-03-18T02:36:57.815Z,3.55
2023-03-18T02:39:25.906Z,6.00
2023-03-18T02:41:55.842Z,4.55
2023-03-18T02:44:23.520Z,4.85
2023-03-18T02:47:17.189Z,4.13
2023-03-18T02:49:44.666Z,4.45
2023-03-18T02:52:13.351Z,4.50
2023-03-18T02:54:41.163Z,4.30
2023-03-18T02:57:08.995Z,5.07
2023-03-18T02:59:37.209Z,4.85
2023-03-18T03:02:04.396Z,4.68
2023-03-18T03:04:32.074Z,6.25
2023-03-18T03:07:01.476Z,5.72
2023-03-18T03:09:43.271Z,4.50
2023-03-18T03:12:10.520Z,5.15
2023-03-18T03:14:43.637Z,4.65
2023-03-18T03:17:10.924Z,5.53
2023-03-18T03:19:38.419Z,6.28
2023-03-18T03:22:07.095Z,5.55
2023-03-18T03:24:34.258Z,4.90
2023-03-18T03:27:01.644Z,5.18
2023-03-18T03:29:29.365Z,3.65
2023-03-18T03:31:56.515Z,4.68
2023-03-18T03:34:25.002Z,3.50
2023-03-18T03:36:52.129Z,3.80
2023-03-18T03:39:19.329Z,4.50
2023-03-18T03:41:46.416Z,4.00
2023-03-18T03:44:16.881Z,4.28
2023-03-18T03:46:49.176Z,3.88
2023-03-18T03:49:16.860Z,3.58
2023-03-18T03:51:44.153Z,4.25
2023-03-18T03:54:13.299Z,4.10
2023-03-18T03:56:41.031Z,3.70
2023-03-18T03:59:10.248Z,3.25
2023-03-18T04:01:59.802Z,3.25
2023-03-18T04:04:27.899Z,3.38
2023-03-18T04:06:56.113Z,3.40
2023-03-18T04:09:23.887Z,3.30
2023-03-18T04:11:51.011Z,4.00
2023-03-18T04:14:18.321Z,4.35
2023-03-18T04:16:45.685Z,3.92
2023-03-18T04:19:12.949Z,3.30
2023-03-18T04:21:40.068Z,4.20
2023-03-18T04:24:07.571Z,4.35
2023-03-18T04:26:35.020Z,4.43
2023-03-18T04:29:04.885Z,4.40
2023-03-18T04:31:32.271Z,3.85
2023-03-18T04:34:00.985Z,5.00
2023-03-18T04:36:28.524Z,3.88
2023-03-18T04:38:57.081Z,4.28
2023-03-18T04:41:25.302Z,4.88
2023-03-18T04:43:54.600Z,5.20
2023-03-18T04:46:23.405Z,4.57
2023-03-18T04:48:51.488Z,4.45
2023-03-18T04:51:18.885Z,4.32
2023-03-18T04:53:46.818Z,4.95
2023-03-18T04:56:14.427Z,4.13
2023-03-18T04:58:49.667Z,3.95
2023-03-18T05:01:22.118Z,4.28
2023-03-18T05:03:50.319Z,4.55
2023-03-18T05:06:27.563Z,3.45
2023-03-18T05:08:58.941Z,3.80
2023-03-18T05:11:29.184Z,4.00
2023-03-18T05:13:59.313Z,3.78
2023-03-18T05:16:27.169Z,3.88
2023-03-18T05:18:54.261Z,3.72
2023-03-18T05:21:21.577Z,4.28
2023-03-18T05:23:49.200Z,3.08
2023-03-18T05:26:17.226Z,4.13
2023-03-18T05:28:47.008Z,3.15
2023-03-18T05:31:27.316Z,4.70
2023-03-18T05:33:54.596Z,3.00
2023-03-18T05:36:23.416Z,3.55
2023-03-18T05:38:57.717Z,3.00
2023-03-18T05:41:25.790Z,2.58
2023-03-18T05:43:53.557Z,3.88
2023-03-18T05:46:21.286Z,3.17
2023-03-18T05:48:57.998Z,3.47
2023-03-18T05:51:30.242Z,3.13
2023-03-18T05:53:57.395Z,3.33
2023-03-18T05:56:28.839Z,4.10
2023-03-18T05:58:59.327Z,4.55
2023-03-18T06:01:53.982Z,5.15
2023-03-18T06:04:22.354Z,4.47
2023-03-18T06:06:50.699Z,5.10
2023-03-18T06:09:19.211Z,4.53
2023-03-18T06:11:47.314Z,5.25
2023-03-18T06:14:14.682Z,4.70
2023-03-18T06:16:42.403Z,4.32
2023-03-18T06:19:12.239Z,4.32
2023-03-18T06:21:40.394Z,4.95
2023-03-18T06:24:08.555Z,3.80
2023-03-18T06:26:36.420Z,4.00
2023-03-18T06:29:05.400Z,3.72
2023-03-18T06:31:32.960Z,4.82
2023-03-18T06:34:01.560Z,3.95
2023-03-18T06:36:34.474Z,3.95
2023-03-18T06:39:04.312Z,4.28
2023-03-18T06:41:32.747Z,3.10
2023-03-18T06:44:21.081Z,2.50
2023-03-18T06:46:48.356Z,3.10
2023-03-18T06:49:16.683Z,2.58
2023-03-18T06:51:51.084Z,3.00
2023-03-18T06:54:18.627Z,3.03
2023-03-18T06:56:46.860Z,3.33
2023-03-18T06:59:19.289Z,2.75
2023-03-18T07:01:46.760Z,2.17
2023-03-18T07:04:16.730Z,2.22
2023-03-18T07:06:43.891Z,2.10
2023-03-18T07:09:11.210Z,1.92
2023-03-18T07:11:38.510Z,2.30
2023-03-18T07:14:11.122Z,2.00
2023-03-18T07:16:39.166Z,1.88
2023-03-18T07:19:07.392Z,2.55
2023-03-18T07:21:35.426Z,1.70
2023-03-18T07:24:04.093Z,2.53
2023-03-18T07:26:31.917Z,2.63
2023-03-18T07:28:59.333Z,2.25
2023-03-18T07:31:26.958Z,2.40
2023-03-18T07:33:54.082Z,1.90
2023-03-18T07:36:21.400Z,2.72
2023-03-18T07:38:48.557Z,2.67
2023-03-18T07:41:15.719Z,2.88
2023-03-18T07:43:43.643Z,2.70
2023-03-18T07:46:10.878Z,3.03
2023-03-18T07:48:38.023Z,2.67
2023-03-18T07:51:05.585Z,2.15
2023-03-18T07:53:33.807Z,2.35
2023-03-18T07:56:01.704Z,3.08
2023-03-18T07:58:28.989Z,2.25
2023-03-18T08:00:56.852Z,2.50
2023-03-18T08:03:24.043Z,2.00
2023-03-18T08:05:51.521Z,1.75
2023-03-18T08:08:18.851Z,2.00
2023-03-18T08:10:46.369Z,1.55
2023-03-18T08:13:13.770Z,1.33
2023-03-18T08:15:41.525Z,1.33
2023-03-18T08:18:09.742Z,1.20
2023-03-18T08:20:36.877Z,0.95
2023-03-18T08:23:04.075Z,1.30
2023-03-18T08:25:31.776Z,0.90
2023-03-18T08:27:59.750Z,0.90
2023-03-18T08:30:28.859Z,0.82
2023-03-18T08:32:57.470Z,1.25
2023-03-18T08:35:24.668Z,0.80
2023-03-18T08:37:51.883Z,1.23
2023-03-18T08:40:20.341Z,0.93
2023-03-18T08:42:48.226Z,0.60
2023-03-18T08:45:16.244Z,1.10
2023-03-18T08:47:43.670Z,0.73
2023-03-18T08:50:12.258Z,0.88
2023-03-18T08:52:41.321Z,1.00
2023-03-18T08:55:09.843Z,1.08
2023-03-18T08:57:38.019Z,1.23
2023-03-18T09:00:06.230Z,1.05
2023-03-18T09:02:33.895Z,1.00
2023-03-18T09:05:01.165Z,0.85
2023-03-18T09:07:28.756Z,0.95
2023-03-18T09:09:56.050Z,0.63
2023-03-18T09:12:23.363Z,0.90
2023-03-18T09:14:50.730Z,1.15
2023-03-18T09:17:17.867Z,0.90
2023-03-18T09:19:45.413Z,0.73
2023-03-18T09:22:12.744Z,0.80
2023-03-18T09:24:40.850Z,0.93
2023-03-18T09:27:08.013Z,0.82
2023-03-18T09:29:35.267Z,1.25
2023-03-18T09:32:02.511Z,0.95
2023-03-18T09:34:29.639Z,0.68
2023-03-18T09:36:58.394Z,1.00
2023-03-18T09:39:26.024Z,1.08
2023-03-18T09:42:02.983Z,1.38
2023-03-18T09:44:33.655Z,0.90
2023-03-18T09:47:01.222Z,0.88
2023-03-18T09:49:44.029Z,1.15
2023-03-18T09:52:27.955Z,0.52
2023-03-18T09:55:18.055Z,0.90
2023-03-18T09:57:48.287Z,0.88
2023-03-18T10:00:34.195Z,0.68
2023-03-18T10:03:23.656Z,1.05
2023-03-18T10:06:18.171Z,1.05
2023-03-18T10:09:04.065Z,1.52
2023-03-18T10:11:36.235Z,1.20
2023-03-18T10:14:15.329Z,1.30
2023-03-18T10:17:09.416Z,1.02
2023-03-18T10:19:37.870Z,1.33
2023-03-18T10:22:22.172Z,0.93
2023-03-18T10:24:59.795Z,1.05
2023-03-18T10:27:38.365Z,0.85
2023-03-18T10:30:29.708Z,1.00
2023-03-18T10:32:56.926Z,0.63
2023-03-18T10:35:41.496Z,0.73
2023-03-18T10:38:23.992Z,0.80
2023-03-18T10:43:23.321Z,1.38
2023-03-18T10:46:00.873Z,0.60
2023-03-18T10:48:33.543Z,0.57
2023-03-18T10:51:12.690Z,1.20
2023-03-18T10:53:53.999Z,0.70
2023-03-18T10:56:22.264Z,0.45
2023-03-18T10:58:51.967Z,0.63
2023-03-18T11:01:23.351Z,0.77
2023-03-18T11:04:03.373Z,0.60
2023-03-18T11:06:47.681Z,0.60
2023-03-18T11:09:22.128Z,0.60
2023-03-18T11:11:58.396Z,0.65
2023-03-18T11:14:30.440Z,0.75
2023-03-18T11:17:00.348Z,0.73
2023-03-18T11:19:33.519Z,0.40
2023-03-18T11:22:15.303Z,0.28
2023-03-18T11:24:42.922Z,0.52
2023-03-18T11:27:16.165Z,0.73
2023-03-18T11:29:54.495Z,0.50
2023-03-18T11:32:34.516Z,0.40
2023-03-18T11:35:04.547Z,0.20
2023-03-18T11:37:35.906Z,0.52
2023-03-18T11:40:13.587Z,0.40
2023-03-18T11:42:42.487Z,0.60
2023-03-18T11:45:34.322Z,0.35
2023-03-18T11:48:02.978Z,0.40
2023-03-18T11:50:44.976Z,1.10
2023-03-18T11:53:34.660Z,0.52
2023-03-18T11:56:14.993Z,0.32
2023-03-18T11:58:55.510Z,0.30
2023-03-18T12:01:35.025Z,0.30
2023-03-18T12:04:23.502Z,0.20
2023-03-18T12:07:17.369Z,0.47
2023-03-18T12:10:26.319Z,0.30
2023-03-18T12:13:08.337Z,0.55
2023-03-18T12:15:42.798Z,0.43
2023-03-18T12:18:30.257Z,0.28
2023-03-18T12:21:06.853Z,0.20
2023-03-18T12:23:55.587Z,0.52
2023-03-18T12:26:49.683Z,0.38
2023-03-18T12:29:35.476Z,0.47
2023-03-18T12:32:34.640Z,0.50
2023-03-18T12:35:29.262Z,0.40
2023-03-18T12:38:24.389Z,1.38
2023-03-18T12:41:17.959Z,0.60
2023-03-18T12:44:33.592Z,0.43
2023-03-18T12:47:11.024Z,0.50
2023-03-18T12:49:43.709Z,0.80
2023-03-18T12:52:30.228Z,0.77
2023-03-18T12:55:07.580Z,0.63
2023-03-18T12:57:54.608Z,0.90
2023-03-18T13:00:32.755Z,0.90
2023-03-18T13:03:08.951Z,0.70
2023-03-18T13:06:08.758Z,0.90
2023-03-18T13:08:52.271Z,0.50
2023-03-18T13:11:19.396Z,0.73
2023-03-18T13:13:52.367Z,0.88
2023-03-18T13:16:21.813Z,0.80
2023-03-18T13:18:52.291Z,1.05
2023-03-18T13:21:23.516Z,0.85
2023-03-18T13:24:00.394Z,1.17
2023-03-18T13:26:39.525Z,0.80
2023-03-18T13:29:18.730Z,0.60
2023-03-18T13:31:45.934Z,0.98
2023-03-18T13:34:36.111Z,0.90
2023-03-18T13:37:50.698Z,0.90
2023-03-18T13:40:54.087Z,0.88
2023-03-18T13:43:24.254Z,1.25
2023-03-18T13:45:53.603Z,0.85
2023-03-18T13:48:32.039Z,0.80
2023-03-18T13:51:13.808Z,0.90
2023-03-18T13:53:44.037Z,0.70
2023-03-18T13:56:44.566Z,1.00
2023-03-18T13:59:33.728Z,1.05
2023-03-18T14:02:29.417Z,0.52
2023-03-18T14:05:00.022Z,0.60
2023-03-18T14:07:28.642Z,0.70
2023-03-18T14:10:22.564Z,1.02
2023-03-18T14:12:50.297Z,1.70
2023-03-18T14:15:36.551Z,2.53
2023-03-18T14:18:04.365Z,1.27
2023-03-18T14:20:42.488Z,0.90
2023-03-18T14:23:19.843Z,0.60
2023-03-18T14:25:54.654Z,0.80
2023-03-18T14:28:25.669Z,0.70
2023-03-18T14:31:11.995Z,0.90
2023-03-18T14:34:17.324Z,0.80
2023-03-18T14:36:53.695Z,0.77
2023-03-18T14:39:26.456Z,0.60
2023-03-18T14:41:57.114Z,0.65
2023-03-18T14:44:34.301Z,0.65
2023-03-18T14:47:14.157Z,0.60
2023-03-18T14:50:04.441Z,0.90
2023-03-18T14:52:42.048Z,1.00
2023-03-18T14:55:21.554Z,0.70
2023-03-18T14:57:48.864Z,0.75
2023-03-18T15:00:17.762Z,0.93
2023-03-18T15:02:45.866Z,1.13
2023-03-18T15:05:18.950Z,0.88
2023-03-18T15:07:52.785Z,1.00
2023-03-18T15:10:24.649Z,1.45
2023-03-18T15:13:11.139Z,0.70
2023-03-18T15:15:39.356Z,0.52
2023-03-18T15:18:26.754Z,0.75
2023-03-18T15:21:01.919Z,0.85
2023-03-18T15:23:39.126Z,0.55
2023-03-18T15:26:37.452Z,0.70
2023-03-18T15:29:24.458Z,0.60
2023-03-18T15:31:53.079Z,0.52
2023-03-18T15:34:27.873Z,0.68
2023-03-18T15:37:01.080Z,0.88
2023-03-18T15:39:36.861Z,0.45
2023-03-18T15:42:13.246Z,0.50
2023-03-18T15:44:41.486Z,0.65
2023-03-18T15:47:14.661Z,0.60
2023-03-18T15:49:55.675Z,0.68
2023-03-18T15:52:27.210Z,0.70
2023-03-18T15:54:54.391Z,0.77
2023-03-18T15:57:32.151Z,0.50
2023-03-18T16:00:00.283Z,0.60
2023-03-18T16:02:29.976Z,0.63
2023-03-18T16:05:17.635Z,0.60
2023-03-18T16:07:46.005Z,0.75
2023-03-18T16:10:18.714Z,0.80
2023-03-18T16:12:48.042Z,0.40
2023-03-18T16:15:22.266Z,0.73
2023-03-18T16:17:50.332Z,0.50
2023-03-18T16:20:28.379Z,0.50
2023-03-18T16:22:56.697Z,0.35
2023-03-18T16:25:25.262Z,0.60
2023-03-18T16:27:56.230Z,0.50
2023-03-18T16:30:29.729Z,0.60
2023-03-18T16:32:58.377Z,0.60
2023-03-18T16:35:30.926Z,0.50
2023-03-18T16:38:00.754Z,0.57
2023-03-18T16:40:29.988Z,0.80
2023-03-18T16:42:57.992Z,0.90
2023-03-18T16:45:30.336Z,0.93
2023-03-18T16:48:07.713Z,0.73
2023-03-18T16:50:40.599Z,0.60
2023-03-18T16:53:23.640Z,0.50
2023-03-18T16:56:16.614Z,0.40
2023-03-18T16:58:44.773Z,0.70
2023-03-18T17:01:16.542Z,0.65
2023-03-18T17:03:44.320Z,0.70
2023-03-18T17:06:13.339Z,0.90
2023-03-18T17:08:42.626Z,0.98
2023-03-18T17:11:18.201Z,0.80
2023-03-18T17:13:45.853Z,0.55
2023-03-18T17:16:22.590Z,0.65
2023-03-18T17:18:49.990Z,1.02
2023-03-18T17:21:17.417Z,1.77
2023-03-18T17:23:45.684Z,1.67
2023-03-18T17:26:15.875Z,2.10
2023-03-18T17:28:46.556Z,1.95
2023-03-18T17:31:14.142Z,1.45
2023-03-18T17:33:41.959Z,1.70
2023-03-18T17:36:09.854Z,1.50
2023-03-18T17:38:37.393Z,1.30
2023-03-18T17:41:14.063Z,1.17
2023-03-18T17:43:42.111Z,1.30
2023-03-18T17:46:09.888Z,1.80
2023-03-18T17:48:38.807Z,2.03
2023-03-18T17:51:16.446Z,1.90
2023-03-18T17:53:59.192Z,1.40
2023-03-18T17:56:27.992Z,2.28
2023-03-18T17:58:55.632Z,2.05
2023-03-18T18:01:30.251Z,2.92
2023-03-18T18:03:59.372Z,2.25
2023-03-18T18:06:31.260Z,1.70
2023-03-18T18:09:00.461Z,2.30
2023-03-18T18:11:35.343Z,2.53
2023-03-18T18:14:13.337Z,2.08
2023-03-18T18:16:40.721Z,2.17
2023-03-18T18:19:10.763Z,1.83
2023-03-18T18:21:38.200Z,2.33
2023-03-18T18:24:18.759Z,1.40
2023-03-18T18:26:45.855Z,1.48
2023-03-18T18:29:16.862Z,3.63
2023-03-18T18:31:44.086Z,2.13
2023-03-18T18:34:12.336Z,2.30
2023-03-18T18:36:39.769Z,5.13
2023-03-18T18:39:07.574Z,3.03
2023-03-18T18:41:34.968Z,12.68
2023-03-18T18:44:02.581Z,6.82
2023-03-18T18:46:31.010Z,10.43
2023-03-18T18:48:58.475Z,3.80
2023-03-18T18:51:25.963Z,4.20
2023-03-18T18:53:54.284Z,3.65
2023-03-18T18:56:34.255Z,2.38
2023-03-18T18:59:05.236Z,2.30
2023-03-18T19:01:32.357Z,2.17
2023-03-18T19:03:59.533Z,2.30
2023-03-18T19:06:31.500Z,2.33
2023-03-18T19:09:00.925Z,1.90
2023-03-18T19:11:29.101Z,3.35
2023-03-18T19:14:15.061Z,2.83
2023-03-18T19:16:42.591Z,3.38
2023-03-18T19:19:19.306Z,3.40
2023-03-18T19:21:47.149Z,3.20
2023-03-18T19:24:36.955Z,4.07
2023-03-18T19:27:07.138Z,3.05
2023-03-18T19:29:34.396Z,3.35
2023-03-18T19:32:01.796Z,3.63
2023-03-18T19:34:32.171Z,3.60
2023-03-18T19:37:02.806Z,3.28
2023-03-18T19:39:30.202Z,2.80
2023-03-18T19:41:57.415Z,2.65
2023-03-18T19:44:26.652Z,3.17
2023-03-18T19:46:56.184Z,2.47
2023-03-18T19:49:33.775Z,2.78
2023-03-18T19:52:02.657Z,2.90
2023-03-18T19:54:36.894Z,2.63
2023-03-18T19:57:23.769Z,2.67
2023-03-18T19:59:52.672Z,3.40
2023-03-18T20:02:25.129Z,4.00
2023-03-18T20:04:55.367Z,2.75
2023-03-18T20:07:24.586Z,2.65
2023-03-18T20:09:52.536Z,3.17
2023-03-18T20:12:35.104Z,3.28
2023-03-18T20:15:06.494Z,2.20
2023-03-18T20:17:39.655Z,3.53
2023-03-18T20:20:28.624Z,6.80
2023-03-18T20:23:01.909Z,5.80
2023-03-18T20:25:37.174Z,5.80
2023-03-18T20:28:05.182Z,6.55
2023-03-18T20:30:35.452Z,4.53
2023-03-18T20:33:05.803Z,5.53
2023-03-18T20:35:39.743Z,4.15
2023-03-18T20:38:25.576Z,3.72
2023-03-18T20:40:53.028Z,4.65
2023-03-18T20:43:22.805Z,4.68
2023-03-18T20:45:52.514Z,3.60
2023-03-18T20:48:20.743Z,3.88
2023-03-18T20:50:48.022Z,3.85
2023-03-18T20:53:21.903Z,8.10
2023-03-18T20:55:50.012Z,10.45
2023-03-18T20:58:19.646Z,7.93
2023-03-18T21:00:47.326Z,8.52
2023-03-18T21:03:23.729Z,7.40
2023-03-18T21:05:52.768Z,10.32
2023-03-18T21:08:19.990Z,7.25
2023-03-18T21:10:47.316Z,6.10
2023-03-18T21:13:27.113Z,7.53
2023-03-18T21:15:55.668Z,5.53
2023-03-18T21:18:22.944Z,4.82
2023-03-18T21:20:50.735Z,4.35
2023-03-18T21:23:26.854Z,6.78
2023-03-18T21:25:54.771Z,4.90
2023-03-18T21:28:23.737Z,5.13
2023-03-18T21:30:52.890Z,3.80
2023-03-18T21:33:33.503Z,4.40
2023-03-18T21:36:01.874Z,3.97
2023-03-18T21:38:35.005Z,4.13
2023-03-18T21:41:02.811Z,3.25
2023-03-18T21:43:35.249Z,3.50
2023-03-18T21:46:04.781Z,3.53
2023-03-18T21:48:32.408Z,3.55
2023-03-18T21:50:59.845Z,2.58
2023-03-18T21:53:28.332Z,2.78
2023-03-18T21:55:55.557Z,3.72
2023-03-18T21:58:24.868Z,12.73
2023-03-18T22:00:54.663Z,11.48
2023-03-18T22:03:24.053Z,7.78
2023-03-18T22:05:52.663Z,7.50
2023-03-18T22:08:20.679Z,7.03
2023-03-18T22:10:49.677Z,5.10
2023-03-18T22:13:21.288Z,38.80
2023-03-18T22:15:57.119Z,23.73
2023-03-18T22:18:24.633Z,23.63
2023-03-18T22:20:52.092Z,11.90
2023-03-18T22:23:23.399Z,18.80
2023-03-18T22:25:53.086Z,11.38
2023-03-18T22:28:20.786Z,8.73
2023-03-18T22:30:55.108Z,9.05
2023-03-18T22:33:26.565Z,11.25
2023-03-18T22:35:54.015Z,9.13
2023-03-18T22:38:23.454Z,20.58
2023-03-18T22:40:53.317Z,9.05
2023-03-18T22:43:33.535Z,12.98
2023-03-18T22:46:03.112Z,10.63
2023-03-18T22:48:30.440Z,10.45
2023-03-18T22:50:59.485Z,5.18
2023-03-18T22:53:30.276Z,3.75
2023-03-18T22:55:58.150Z,3.38
2023-03-18T22:58:27.487Z,2.78
2023-03-18T23:00:55.991Z,2.38
2023-03-18T23:03:28.726Z,2.10
2023-03-18T23:05:57.653Z,2.42
2023-03-18T23:08:25.172Z,2.80
2023-03-18T23:10:54.177Z,2.35
2023-03-18T23:13:35.774Z,2.20
2023-03-18T23:16:06.388Z,2.67
2023-03-18T23:18:33.904Z,2.13
2023-03-18T23:21:01.796Z,2.50
2023-03-18T23:23:30.394Z,2.22
2023-03-18T23:25:57.920Z,2.42
2023-03-18T23:28:25.138Z,1.40
2023-03-18T23:30:53.303Z,2.35
2023-03-18T23:33:20.611Z,2.10
2023-03-18T23:35:48.904Z,2.85
2023-03-18T23:38:16.206Z,1.80
2023-03-18T23:40:43.550Z,1.67
2023-03-18T23:43:11.245Z,2.40
2023-03-18T23:45:39.129Z,2.50
2023-03-18T23:48:07.187Z,2.05
2023-03-18T23:50:34.616Z,2.58
2023-03-18T23:53:01.918Z,2.30
2023-03-18T23:55:36.138Z,3.05
2023-03-18T23:58:04.184Z,2.25
